Time;durP1;ratioP1;P1;durP2;ratioP2;P2;SDS_P1;SDS_P2;PMS_P1;PMS_P2;Temp;Humidity;BMP_temperature;BMP_pressure;BME280_temperature;BME280_humidity;BME280_pressure;Samples;Min_cycle;Max_cycle;Signal;HPM_P1;HPM_P2
2023/09/18 00:00:15;;;;;;;5.03;4.63;;;;;;;;;;5014967;28;20225;-54
2023/09/18 00:02:42;;;;;;;6.07;4.93;;;;;;;;;;5014640;28;20642;-54
2023/09/18 00:05:08;;;;;;;5.13;4.40;;;;;;;;;;5014609;28;20201;-54
2023/09/18 00:07:34;;;;;;;4.80;4.40;;;;;;;;;;5014881;28;20193;-54
2023/09/18 00:10:00;;;;;;;4.97;4.30;;;;;;;;;;5015172;28;20292;-54
2023/09/18 00:12:26;;;;;;;5.33;4.83;;;;;;;;;;5014776;28;20207;-54
2023/09/18 00:14:53;;;;;;;4.93;4.50;;;;;;;;;;5014672;28;20297;-54
2023/09/18 00:17:19;;;;;;;5.90;4.40;;;;;;;;;;5014949;28;20276;-53
2023/09/18 00:19:46;;;;;;;6.40;4.93;;;;;;;;;;5014544;28;20312;-54
2023/09/18 00:22:12;;;;;;;5.33;4.83;;;;;;;;;;5014638;28;20737;-54
2023/09/18 00:24:38;;;;;;;5.67;5.00;;;;;;;;;;5014588;28;20204;-54
2023/09/18 00:27:04;;;;;;;5.73;4.60;;;;;;;;;;5014518;28;20198;-53
2023/09/18 00:29:30;;;;;;;5.43;5.03;;;;;;;;;;5012977;28;20690;-54
2023/09/18 00:31:56;;;;;;;6.80;4.97;;;;;;;;;;5012990;28;20744;-54
2023/09/18 00:34:22;;;;;;;5.00;4.50;;;;;;;;;;5014284;28;20252;-56
2023/09/18 00:36:50;;;;;;;5.70;4.77;;;;;;;;;;5014236;28;20558;-53
2023/09/18 00:39:16;;;;;;;8.50;4.53;;;;;;;;;;5013900;28;20229;-55
2023/09/18 00:41:42;;;;;;;5.00;4.60;;;;;;;;;;5014167;28;20208;-54
2023/09/18 00:44:08;;;;;;;4.83;4.33;;;;;;;;;;5014134;28;20212;-54
2023/09/18 00:46:36;;;;;;;5.80;4.50;;;;;;;;;;5014193;28;20193;-55
2023/09/18 00:49:02;;;;;;;4.67;4.20;;;;;;;;;;5014071;28;20203;-54
2023/09/18 00:51:29;;;;;;;6.00;4.53;;;;;;;;;;5013891;28;20193;-54
2023/09/18 00:53:56;;;;;;;5.23;4.73;;;;;;;;;;5013933;28;20446;-55
2023/09/18 00:56:22;;;;;;;4.63;4.23;;;;;;;;;;5013797;28;20575;-55
2023/09/18 00:58:48;;;;;;;4.53;4.13;;;;;;;;;;5013878;28;20252;-54
2023/09/18 01:01:16;;;;;;;4.80;4.40;;;;;;;;;;5012680;28;20201;-54
2023/09/18 01:03:42;;;;;;;5.27;4.20;;;;;;;;;;5013848;28;20260;-54
2023/09/18 01:06:08;;;;;;;5.07;4.20;;;;;;;;;;5013638;28;20205;-54
2023/09/18 01:08:34;;;;;;;5.27;4.60;;;;;;;;;;5013650;28;20194;-54
2023/09/18 01:11:05;;;;;;;4.63;4.23;;;;;;;;;;5013671;28;20205;-55
2023/09/18 01:13:36;;;;;;;5.07;4.63;;;;;;;;;;5013595;28;20209;-55
2023/09/18 01:16:04;;;;;;;6.13;4.80;;;;;;;;;;5013663;28;20706;-55
2023/09/18 01:18:30;;;;;;;4.40;4.03;;;;;;;;;;5013312;28;20236;-55
2023/09/18 01:20:56;;;;;;;4.47;4.18;;;;;;;;;;5012027;28;20419;-54
2023/09/18 01:23:23;;;;;;;5.20;4.33;;;;;;;;;;5013332;28;20296;-55
2023/09/18 01:25:50;;;;;;;5.03;4.20;;;;;;;;;;5013665;28;20252;-55
2023/09/18 01:28:16;;;;;;;5.33;4.30;;;;;;;;;;5013311;28;20231;-55
2023/09/18 01:30:42;;;;;;;4.23;3.80;;;;;;;;;;5013316;28;20204;-55
2023/09/18 01:33:10;;;;;;;5.23;4.20;;;;;;;;;;5013399;28;20667;-55
2023/09/18 01:35:37;;;;;;;4.50;4.10;;;;;;;;;;5012830;28;20581;-53
2023/09/18 01:38:03;;;;;;;4.53;4.13;;;;;;;;;;5013246;28;20272;-54
2023/09/18 01:40:31;;;;;;;4.60;3.90;;;;;;;;;;5012844;28;20619;-55
2023/09/18 01:42:57;;;;;;;4.60;4.07;;;;;;;;;;5013246;28;20216;-55
2023/09/18 01:45:23;;;;;;;4.47;4.00;;;;;;;;;;5013013;28;20220;-55
2023/09/18 01:47:49;;;;;;;4.57;4.07;;;;;;;;;;5013173;28;20207;-55
2023/09/18 01:50:15;;;;;;;4.23;3.83;;;;;;;;;;5012809;28;20192;-55
2023/09/18 01:52:41;;;;;;;7.00;4.47;;;;;;;;;;5013027;28;20586;-54
2023/09/18 01:55:07;;;;;;;6.90;4.73;;;;;;;;;;5012813;28;20240;-53
2023/09/18 01:57:36;;;;;;;4.73;4.33;;;;;;;;;;5012821;28;20549;-55
2023/09/18 02:00:07;;;;;;;4.57;4.17;;;;;;;;;;5012766;28;20633;-54
2023/09/18 02:02:33;;;;;;;5.20;4.50;;;;;;;;;;5012815;28;20201;-54
2023/09/18 02:05:00;;;;;;;4.90;4.40;;;;;;;;;;5012695;28;20224;-54
2023/09/18 02:07:26;;;;;;;4.43;4.03;;;;;;;;;;5012493;28;20207;-55
2023/09/18 02:09:52;;;;;;;5.40;4.90;;;;;;;;;;5011191;28;20498;-55
2023/09/18 02:12:18;;;;;;;5.00;4.53;;;;;;;;;;5012609;28;20251;-54
2023/09/18 02:14:46;;;;;;;5.57;5.07;;;;;;;;;;5012520;28;20263;-54
2023/09/18 02:17:12;;;;;;;4.93;4.43;;;;;;;;;;5012338;28;20711;-54
2023/09/18 02:19:38;;;;;;;4.77;4.37;;;;;;;;;;5012289;28;20261;-55
2023/09/18 02:22:04;;;;;;;5.53;4.80;;;;;;;;;;5012619;28;20204;-54
2023/09/18 02:24:30;;;;;;;7.73;4.90;;;;;;;;;;5012395;28;20224;-55
2023/09/18 02:26:56;;;;;;;6.80;5.20;;;;;;;;;;5010925;28;20243;-54
2023/09/18 02:29:22;;;;;;;5.53;5.03;;;;;;;;;;5012087;28;20205;-54
2023/09/18 02:31:50;;;;;;;7.80;4.80;;;;;;;;;;5012492;28;20201;-54
2023/09/18 02:34:18;;;;;;;5.27;4.60;;;;;;;;;;5012516;28;20201;-54
2023/09/18 02:36:44;;;;;;;5.10;4.60;;;;;;;;;;5012001;28;20224;-54
2023/09/18 02:39:10;;;;;;;5.07;4.67;;;;;;;;;;5011879;28;20500;-54
2023/09/18 02:41:36;;;;;;;5.50;4.97;;;;;;;;;;5012023;28;20664;-54
2023/09/18 02:44:02;;;;;;;6.17;4.60;;;;;;;;;;5012246;28;20185;-54
2023/09/18 02:46:29;;;;;;;5.03;4.50;;;;;;;;;;5011803;28;20559;-54
2023/09/18 02:48:56;;;;;;;4.20;3.90;;;;;;;;;;5011947;28;20252;-54
2023/09/18 02:51:23;;;;;;;4.80;4.40;;;;;;;;;;5011668;28;20247;-55
2023/09/18 02:53:49;;;;;;;4.83;4.33;;;;;;;;;;5011984;28;20277;-54
2023/09/18 02:56:15;;;;;;;4.67;4.10;;;;;;;;;;5011715;28;20691;-54
2023/09/18 02:58:41;;;;;;;4.83;3.70;;;;;;;;;;5011739;28;20324;-54
2023/09/18 03:01:08;;;;;;;3.90;3.60;;;;;;;;;;5011808;28;20197;-54
2023/09/18 03:03:34;;;;;;;4.10;3.70;;;;;;;;;;5011749;28;20205;-53
2023/09/18 03:06:05;;;;;;;4.00;3.60;;;;;;;;;;5011663;28;20198;-53
2023/09/18 03:08:31;;;;;;;3.70;3.40;;;;;;;;;;5011640;28;20258;-53
2023/09/18 03:10:57;;;;;;;4.77;3.80;;;;;;;;;;5011759;28;20192;-53
2023/09/18 03:13:23;;;;;;;3.90;3.50;;;;;;;;;;5011659;28;20288;-53
2023/09/18 03:15:49;;;;;;;3.60;3.30;;;;;;;;;;5011764;28;20283;-54
2023/09/18 03:18:15;;;;;;;4.20;3.80;;;;;;;;;;5011599;28;20200;-55
2023/09/18 03:20:41;;;;;;;3.80;3.47;;;;;;;;;;5011386;28;20291;-55
2023/09/18 03:23:09;;;;;;;4.20;3.80;;;;;;;;;;5011749;28;20225;-55
2023/09/18 03:25:35;;;;;;;5.00;4.40;;;;;;;;;;5015277;28;20277;-54
2023/09/18 03:28:01;;;;;;;4.77;4.37;;;;;;;;;;5015669;28;20203;-55
2023/09/18 03:30:27;;;;;;;6.37;4.73;;;;;;;;;;5015318;28;20200;-55
2023/09/18 03:32:53;;;;;;;5.73;5.20;;;;;;;;;;5015425;28;20201;-55
2023/09/18 03:35:20;;;;;;;5.50;4.90;;;;;;;;;;5015405;28;20271;-55
2023/09/18 03:37:46;;;;;;;5.50;5.00;;;;;;;;;;5015333;28;20237;-55
2023/09/18 03:40:14;;;;;;;5.27;4.70;;;;;;;;;;5015304;28;20507;-55
2023/09/18 03:42:40;;;;;;;5.87;5.10;;;;;;;;;;5015299;28;20402;-54
2023/09/18 03:45:07;;;;;;;6.10;4.97;;;;;;;;;;5015370;28;20288;-54
2023/09/18 03:47:34;;;;;;;6.70;4.93;;;;;;;;;;5015292;28;20207;-54
2023/09/18 03:50:00;;;;;;;4.93;4.37;;;;;;;;;;5015166;28;20185;-55
2023/09/18 03:52:26;;;;;;;4.50;4.17;;;;;;;;;;5014987;28;20271;-55
2023/09/18 03:54:52;;;;;;;4.60;4.20;;;;;;;;;;5015269;28;20190;-55
2023/09/18 03:57:19;;;;;;;7.23;4.73;;;;;;;;;;5015221;28;20200;-55
2023/09/18 03:59:45;;;;;;;6.37;4.60;;;;;;;;;;5014866;28;20247;-55
2023/09/18 04:02:11;;;;;;;5.13;4.63;;;;;;;;;;5014851;28;20564;-55
2023/09/18 04:04:37;;;;;;;6.37;4.87;;;;;;;;;;5014773;28;20196;-54
2023/09/18 04:07:06;;;;;;;5.70;4.77;;;;;;;;;;5015124;28;20204;-54
2023/09/18 04:09:32;;;;;;;5.60;5.10;;;;;;;;;;5014901;28;20190;-55
2023/09/18 04:11:58;;;;;;;4.70;4.10;;;;;;;;;;5014933;28;20279;-54
2023/09/18 04:14:25;;;;;;;5.10;4.60;;;;;;;;;;5014515;28;20651;-54
2023/09/18 04:16:51;;;;;;;5.23;4.40;;;;;;;;;;5014670;28;20215;-54
2023/09/18 04:19:18;;;;;;;8.60;4.80;;;;;;;;;;5014848;28;20315;-54
2023/09/18 04:21:44;;;;;;;6.57;5.03;;;;;;;;;;5014432;28;20254;-55
2023/09/18 04:24:10;;;;;;;6.53;4.37;;;;;;;;;;5014502;28;20201;-55
2023/09/18 04:26:37;;;;;;;6.40;4.80;;;;;;;;;;5014447;28;20667;-54
2023/09/18 04:29:04;;;;;;;5.90;4.80;;;;;;;;;;5014691;28;20667;-55
2023/09/18 04:31:31;;;;;;;6.63;4.40;;;;;;;;;;5014176;28;20295;-55
2023/09/18 04:33:57;;;;;;;5.57;4.37;;;;;;;;;;5009829;28;20221;-55
2023/09/18 04:36:24;;;;;;;5.03;4.10;;;;;;;;;;4994311;28;20237;-55
2023/09/18 04:38:50;;;;;;;5.10;4.60;;;;;;;;;;4994497;28;20238;-55
2023/09/18 04:41:17;;;;;;;4.60;4.20;;;;;;;;;;4994665;28;20200;-54
2023/09/18 04:43:43;;;;;;;4.33;3.93;;;;;;;;;;4994613;28;20195;-55
2023/09/18 04:46:09;;;;;;;5.43;4.30;;;;;;;;;;4994445;28;20210;-55
2023/09/18 04:48:36;;;;;;;5.97;4.20;;;;;;;;;;4994427;28;20584;-55
2023/09/18 04:51:06;;;;;;;4.90;4.23;;;;;;;;;;4994773;28;20675;-55
2023/09/18 04:53:32;;;;;;;5.83;4.63;;;;;;;;;;4994531;28;20731;-55
2023/09/18 04:55:58;;;;;;;5.17;4.63;;;;;;;;;;4994185;28;20289;-55
2023/09/18 04:58:25;;;;;;;6.10;4.23;;;;;;;;;;4993632;28;20214;-55
2023/09/18 05:00:54;;;;;;;5.00;4.50;;;;;;;;;;4994028;28;20198;-55
2023/09/18 05:03:21;;;;;;;5.57;4.70;;;;;;;;;;4993925;28;20212;-54
2023/09/18 05:05:48;;;;;;;5.27;4.43;;;;;;;;;;4993631;28;20217;-54
2023/09/18 05:08:14;;;;;;;4.73;4.33;;;;;;;;;;4993841;28;20202;-55
2023/09/18 05:10:40;;;;;;;7.40;4.37;;;;;;;;;;4993661;28;20186;-55
2023/09/18 05:13:07;;;;;;;4.87;4.37;;;;;;;;;;4993406;28;20212;-55
2023/09/18 05:15:33;;;;;;;4.97;4.10;;;;;;;;;;4993603;28;20277;-55
2023/09/18 05:18:00;;;;;;;4.37;3.90;;;;;;;;;;4993420;28;20293;-55
2023/09/18 05:20:27;;;;;;;6.73;4.40;;;;;;;;;;4993058;28;20233;-55
2023/09/18 05:22:55;;;;;;;5.13;4.63;;;;;;;;;;4993499;28;20258;-55
2023/09/18 05:25:22;;;;;;;4.30;3.90;;;;;;;;;;4993344;28;20212;-55
2023/09/18 05:27:49;;;;;;;4.87;4.37;;;;;;;;;;4993644;28;20222;-54
2023/09/18 05:30:16;;;;;;;5.73;4.37;;;;;;;;;;4993494;28;20202;-55
2023/09/18 05:32:43;;;;;;;10.83;4.83;;;;;;;;;;4993114;28;20206;-55
2023/09/18 05:35:10;;;;;;;4.73;4.30;;;;;;;;;;4992651;28;20309;-55
2023/09/18 05:37:37;;;;;;;4.67;4.27;;;;;;;;;;4992903;28;20245;-55
2023/09/18 05:40:06;;;;;;;5.07;4.07;;;;;;;;;;4993196;28;20835;-55
2023/09/18 05:42:33;;;;;;;5.47;4.13;;;;;;;;;;4993028;28;20210;-55
2023/09/18 05:44:59;;;;;;;5.80;4.63;;;;;;;;;;4993080;28;20629;-55
2023/09/18 05:47:25;;;;;;;5.63;4.50;;;;;;;;;;4992378;28;20296;-54
2023/09/18 05:49:51;;;;;;;5.87;5.07;;;;;;;;;;4992705;28;20201;-54
2023/09/18 05:52:17;;;;;;;5.00;4.60;;;;;;;;;;4992915;28;20190;-54
2023/09/18 05:54:43;;;;;;;4.73;4.33;;;;;;;;;;4992733;28;20255;-55
2023/09/18 05:57:10;;;;;;;4.67;4.27;;;;;;;;;;4992900;28;20202;-55
2023/09/18 05:59:37;;;;;;;7.17;4.67;;;;;;;;;;4992600;28;20659;-54
2023/09/18 06:02:03;;;;;;;5.10;4.60;;;;;;;;;;4992982;28;20233;-54
2023/09/18 06:04:30;;;;;;;5.53;4.43;;;;;;;;;;4992467;28;20779;-54
2023/09/18 06:06:56;;;;;;;4.77;4.37;;;;;;;;;;4992945;28;20608;-54
2023/09/18 06:09:22;;;;;;;5.00;4.60;;;;;;;;;;4992584;28;20220;-55
2023/09/18 06:11:48;;;;;;;5.07;4.60;;;;;;;;;;4992605;28;20640;-54
2023/09/18 06:14:16;;;;;;;7.07;5.03;;;;;;;;;;4992527;28;20202;-54
2023/09/18 06:16:42;;;;;;;4.83;4.33;;;;;;;;;;4992298;28;20605;-54
2023/09/18 06:19:08;;;;;;;7.23;4.70;;;;;;;;;;4992353;28;20325;-55
2023/09/18 06:21:34;;;;;;;5.73;4.90;;;;;;;;;;4992329;28;20296;-54
2023/09/18 06:24:00;;;;;;;6.50;4.37;;;;;;;;;;4992333;28;20196;-54
2023/09/18 06:26:26;;;;;;;4.40;4.00;;;;;;;;;;4990654;28;20205;-55
2023/09/18 06:28:52;;;;;;;5.17;4.77;;;;;;;;;;4992282;28;20197;-54
2023/09/18 06:31:20;;;;;;;4.87;4.43;;;;;;;;;;4992322;28;20272;-54
2023/09/18 06:33:46;;;;;;;5.03;4.53;;;;;;;;;;4992146;28;20206;-54
2023/09/18 06:36:12;;;;;;;5.07;4.67;;;;;;;;;;4991990;28;20245;-54
2023/09/18 06:38:39;;;;;;;5.40;4.50;;;;;;;;;;4991866;28;20288;-54
2023/09/18 06:41:05;;;;;;;5.70;4.53;;;;;;;;;;4992064;28;20206;-54
2023/09/18 06:43:31;;;;;;;5.43;4.40;;;;;;;;;;4991898;28;20264;-54
2023/09/18 06:45:57;;;;;;;5.20;4.60;;;;;;;;;;4992036;28;20221;-54
2023/09/18 06:48:25;;;;;;;6.10;4.47;;;;;;;;;;4991722;28;20288;-55
2023/09/18 06:50:51;;;;;;;4.63;4.23;;;;;;;;;;4991921;28;20252;-54
2023/09/18 06:53:17;;;;;;;6.07;4.57;;;;;;;;;;4992039;28;20198;-54
2023/09/18 06:55:43;;;;;;;5.53;5.00;;;;;;;;;;4991748;28;20268;-54
2023/09/18 06:58:09;;;;;;;5.37;4.50;;;;;;;;;;4991157;28;20620;-54
2023/09/18 07:00:35;;;;;;;5.70;4.40;;;;;;;;;;4991592;28;20232;-54
2023/09/18 07:03:01;;;;;;;5.30;4.80;;;;;;;;;;4992004;28;20194;-54
2023/09/18 07:05:28;;;;;;;7.00;4.73;;;;;;;;;;4991700;28;20273;-54
2023/09/18 07:07:55;;;;;;;5.50;4.77;;;;;;;;;;4991719;28;20213;-54
2023/09/18 07:10:21;;;;;;;5.40;4.70;;;;;;;;;;4991578;28;20570;-54
2023/09/18 07:12:47;;;;;;;5.93;4.30;;;;;;;;;;4991941;28;20214;-54
2023/09/18 07:15:13;;;;;;;5.40;4.70;;;;;;;;;;4991915;28;20260;-54
2023/09/18 07:17:39;;;;;;;5.30;4.43;;;;;;;;;;4991246;28;20692;-54
2023/09/18 07:20:15;;;;;;;6.40;4.80;;;;;;;;;;4991606;28;20233;-54
2023/09/18 07:22:46;;;;;;;5.70;4.83;;;;;;;;;;4991499;28;20221;-54
2023/09/18 07:25:12;;;;;;;7.27;5.20;;;;;;;;;;4991731;28;20289;-54
2023/09/18 07:27:43;;;;;;;5.13;4.53;;;;;;;;;;4991545;28;20202;-54
2023/09/18 07:30:10;;;;;;;7.37;3.80;;;;;;;;;;4991560;28;20198;-54
2023/09/18 07:32:36;;;;;;;5.80;4.10;;;;;;;;;;4991971;28;20232;-54
2023/09/18 07:35:04;;;;;;;5.60;4.17;;;;;;;;;;4991551;28;20218;-54
2023/09/18 07:37:30;;;;;;;4.63;4.20;;;;;;;;;;4991163;28;20716;-54
2023/09/18 07:39:58;;;;;;;6.27;3.93;;;;;;;;;;4991035;28;20305;-54
2023/09/18 07:42:24;;;;;;;5.80;4.23;;;;;;;;;;4991024;28;20253;-54
2023/09/18 07:44:50;;;;;;;8.27;4.07;;;;;;;;;;4991042;28;20565;-54
2023/09/18 07:47:16;;;;;;;4.53;3.93;;;;;;;;;;4991132;28;20241;-54
2023/09/18 07:49:42;;;;;;;5.90;3.57;;;;;;;;;;4990848;28;20665;-54
2023/09/18 07:52:09;;;;;;;4.23;3.67;;;;;;;;;;4991088;28;20212;-54
2023/09/18 07:54:35;;;;;;;5.37;3.73;;;;;;;;;;4990966;28;20683;-54
2023/09/18 07:57:03;;;;;;;5.17;3.67;;;;;;;;;;4991080;28;20193;-54
2023/09/18 07:59:29;;;;;;;6.90;3.70;;;;;;;;;;4990773;28;20704;-55
2023/09/18 08:01:55;;;;;;;4.07;3.73;;;;;;;;;;4990915;28;20614;-54
2023/09/18 08:04:21;;;;;;;5.00;4.00;;;;;;;;;;4990892;28;20295;-55
2023/09/18 08:06:47;;;;;;;5.90;3.60;;;;;;;;;;4990894;28;20206;-54
2023/09/18 08:09:15;;;;;;;4.03;3.33;;;;;;;;;;4990817;28;20209;-53
2023/09/18 08:11:42;;;;;;;4.60;3.30;;;;;;;;;;4994223;28;20216;-54
2023/09/18 08:14:09;;;;;;;4.10;3.37;;;;;;;;;;4994367;28;20202;-53
2023/09/18 08:16:35;;;;;;;3.87;3.43;;;;;;;;;;4994405;28;20505;-54
2023/09/18 08:19:01;;;;;;;3.30;3.00;;;;;;;;;;4994274;28;20226;-53
2023/09/18 08:21:31;;;;;;;5.93;3.47;;;;;;;;;;4994278;28;20241;-53
2023/09/18 08:23:57;;;;;;;3.40;3.10;;;;;;;;;;4994429;28;20217;-54
2023/09/18 08:26:25;;;;;;;5.50;3.40;;;;;;;;;;4994167;28;20241;-55
2023/09/18 08:28:51;;;;;;;4.53;3.23;;;;;;;;;;4994322;28;20281;-56
2023/09/18 08:31:18;;;;;;;5.70;3.53;;;;;;;;;;4994496;28;20226;-53
2023/09/18 08:33:44;;;;;;;4.27;3.37;;;;;;;;;;4994007;28;20257;-55
2023/09/18 08:36:10;;;;;;;4.90;3.30;;;;;;;;;;4993939;28;20274;-53
2023/09/18 08:38:36;;;;;;;5.57;3.33;;;;;;;;;;4993787;28;20238;-52
2023/09/18 08:41:03;;;;;;;6.10;3.30;;;;;;;;;;4993836;28;20597;-53
2023/09/18 08:43:30;;;;;;;4.63;3.20;;;;;;;;;;4993737;28;20219;-53
2023/09/18 08:46:01;;;;;;;6.57;3.13;;;;;;;;;;4993931;28;20359;-53
2023/09/18 08:48:34;;;;;;;4.87;3.03;;;;;;;;;;4993799;28;20275;-54
2023/09/18 08:51:01;;;;;;;4.73;2.90;;;;;;;;;;4993879;28;20203;-54
2023/09/18 08:53:27;;;;;;;6.53;3.23;;;;;;;;;;4993613;28;20205;-52
2023/09/18 08:55:58;;;;;;;8.03;3.33;;;;;;;;;;4993456;28;20625;-53
2023/09/18 08:58:24;;;;;;;5.43;3.40;;;;;;;;;;4993595;28;20218;-52
2023/09/18 09:00:50;;;;;;;8.10;3.13;;;;;;;;;;4993511;28;20232;-53
2023/09/18 09:03:16;;;;;;;7.03;3.40;;;;;;;;;;4993480;28;20607;-53
2023/09/18 09:05:44;;;;;;;5.03;2.93;;;;;;;;;;4993463;28;20226;-53
2023/09/18 09:08:10;;;;;;;6.27;3.00;;;;;;;;;;4993445;28;20198;-52
2023/09/18 09:10:36;;;;;;;4.17;2.90;;;;;;;;;;4993392;28;20288;-52
2023/09/18 09:13:02;;;;;;;5.40;3.20;;;;;;;;;;4993337;28;20289;-52
2023/09/18 09:15:29;;;;;;;7.60;3.27;;;;;;;;;;4993203;28;20273;-52
2023/09/18 09:18:04;;;;;;;6.47;2.87;;;;;;;;;;4993034;28;20671;-52
2023/09/18 09:20:30;;;;;;;5.17;2.77;;;;;;;;;;4993001;28;20680;-52
2023/09/18 09:23:01;;;;;;;5.87;3.00;;;;;;;;;;4992036;28;20463;-52
2023/09/18 09:25:31;;;;;;;7.00;2.80;;;;;;;;;;4992921;28;20227;-52
2023/09/18 09:27:57;;;;;;;6.47;2.87;;;;;;;;;;4993077;28;20598;-52
2023/09/18 09:30:24;;;;;;;6.83;2.77;;;;;;;;;;4992982;28;20199;-53
2023/09/18 09:32:50;;;;;;;4.10;2.33;;;;;;;;;;4992899;28;20208;-53
2023/09/18 09:35:21;;;;;;;9.63;3.20;;;;;;;;;;4992855;28;20224;-53
2023/09/18 09:37:47;;;;;;;6.20;2.73;;;;;;;;;;4992840;28;20324;-53
2023/09/18 09:40:15;;;;;;;5.33;2.47;;;;;;;;;;4992889;28;20430;-49
2023/09/18 09:42:41;;;;;;;7.43;3.03;;;;;;;;;;4992646;28;20571;-52
2023/09/18 09:45:15;;;;;;;6.00;2.93;;;;;;;;;;4992750;28;20204;-52
2023/09/18 09:47:42;;;;;;;4.60;2.40;;;;;;;;;;4992703;28;20214;-52
2023/09/18 09:50:13;;;;;;;5.03;2.40;;;;;;;;;;4992503;28;20655;-51
2023/09/18 09:52:43;;;;;;;6.07;2.50;;;;;;;;;;4994678;28;20205;-52
2023/09/18 09:55:24;;;;;;;6.30;2.63;;;;;;;;;;5011850;28;20668;-51
2023/09/18 09:57:51;;;;;;;5.30;2.40;;;;;;;;;;5011976;28;20205;-51
2023/09/18 10:00:27;;;;;;;6.77;2.57;;;;;;;;;;5010136;28;20276;-51
2023/09/18 10:02:57;;;;;;;5.57;2.90;;;;;;;;;;5010061;28;20684;-49
2023/09/18 10:05:25;;;;;;;6.37;2.30;;;;;;;;;;5011627;28;20209;-50
2023/09/18 10:07:52;;;;;;;5.73;2.53;;;;;;;;;;5011780;28;20205;-50
2023/09/18 10:10:19;;;;;;;6.70;2.90;;;;;;;;;;5011936;28;20220;-51
2023/09/18 10:12:46;;;;;;;4.33;2.20;;;;;;;;;;5011629;28;20228;-52
2023/09/18 10:15:14;;;;;;;5.67;2.30;;;;;;;;;;5011528;28;20197;-52
2023/09/18 10:17:44;;;;;;;3.90;2.03;;;;;;;;;;5011650;28;20197;-52
2023/09/18 10:20:19;;;;;;;5.23;2.17;;;;;;;;;;5011561;28;20270;-52
2023/09/18 10:22:46;;;;;;;5.70;2.47;;;;;;;;;;5011539;28;20651;-52
2023/09/18 10:25:18;;;;;;;4.87;2.40;;;;;;;;;;5011583;28;20240;-52
2023/09/18 10:27:49;;;;;;;4.90;2.57;;;;;;;;;;5007840;28;20274;-52
2023/09/18 10:30:18;;;;;;;5.00;2.07;;;;;;;;;;5027285;28;20197;-52
2023/09/18 10:32:46;;;;;;;7.47;2.07;;;;;;;;;;4999312;28;20214;-52
2023/09/18 10:35:12;;;;;;;4.80;2.30;;;;;;;;;;5011008;28;20229;-53
2023/09/18 10:37:38;;;;;;;6.33;2.37;;;;;;;;;;5010630;28;20262;-52
2023/09/18 10:40:07;;;;;;;5.00;2.07;;;;;;;;;;5011307;28;20233;-52
2023/09/18 10:42:34;;;;;;;4.43;2.30;;;;;;;;;;5010681;28;20268;-52
2023/09/18 10:45:04;;;;;;;4.40;2.40;;;;;;;;;;5011221;28;20659;-52
2023/09/18 10:47:31;;;;;;;7.80;2.30;;;;;;;;;;5011010;28;20709;-52
2023/09/18 10:49:57;;;;;;;6.13;2.23;;;;;;;;;;5010814;28;20746;-52
2023/09/18 10:52:23;;;;;;;5.93;2.40;;;;;;;;;;5011132;28;20476;-52
2023/09/18 10:54:49;;;;;;;5.00;2.07;;;;;;;;;;5010805;28;20197;-53
2023/09/18 10:57:15;;;;;;;4.63;2.10;;;;;;;;;;5010990;28;20276;-52
2023/09/18 10:59:45;;;;;;;6.17;2.00;;;;;;;;;;5010599;28;20715;-49
2023/09/18 11:02:14;;;;;;;4.13;1.90;;;;;;;;;;5010792;28;20753;-52
2023/09/18 11:04:41;;;;;;;2.90;1.93;;;;;;;;;;5010355;28;20492;-52
2023/09/18 11:07:09;;;;;;;4.17;2.27;;;;;;;;;;5010797;28;20212;-51
2023/09/18 11:09:42;;;;;;;7.53;2.20;;;;;;;;;;5010605;28;20257;-50
2023/09/18 11:12:09;;;;;;;3.00;2.07;;;;;;;;;;5010646;28;20334;-50
2023/09/18 11:14:52;;;;;;;4.40;2.20;;;;;;;;;;5010723;28;20205;-51
2023/09/18 11:17:30;;;;;;;5.73;2.10;;;;;;;;;;5010251;28;20212;-50
2023/09/18 11:20:02;;;;;;;3.60;1.70;;;;;;;;;;5010268;28;20225;-52
2023/09/18 11:22:28;;;;;;;4.07;1.80;;;;;;;;;;5010616;28;20291;-51
2023/09/18 11:24:54;;;;;;;3.67;2.10;;;;;;;;;;5010398;28;20296;-51
2023/09/18 11:27:25;;;;;;;2.80;1.53;;;;;;;;;;5010126;28;20214;-51
2023/09/18 11:29:52;;;;;;;6.73;2.20;;;;;;;;;;5010177;28;20222;-52
2023/09/18 11:32:39;;;;;;;4.23;1.93;;;;;;;;;;5008509;28;20256;-51
2023/09/18 11:35:12;;;;;;;5.70;2.07;;;;;;;;;;5008806;28;20343;-52
2023/09/18 11:37:38;;;;;;;4.00;2.03;;;;;;;;;;5009983;28;20322;-52
2023/09/18 11:40:06;;;;;;;3.33;2.03;;;;;;;;;;5010572;28;20269;-52
2023/09/18 11:42:32;;;;;;;4.17;2.00;;;;;;;;;;5010352;28;20204;-52
2023/09/18 11:44:59;;;;;;;2.90;1.80;;;;;;;;;;5011299;28;20559;-52
2023/09/18 11:47:27;;;;;;;3.80;1.90;;;;;;;;;;5014329;28;20636;-52
2023/09/18 11:49:56;;;;;;;2.87;1.90;;;;;;;;;;5014358;28;20197;-53
2023/09/18 11:52:24;;;;;;;5.77;2.20;;;;;;;;;;5014406;28;20617;-52
2023/09/18 11:54:51;;;;;;;3.37;2.20;;;;;;;;;;5014042;28;20248;-52
2023/09/18 11:57:19;;;;;;;5.33;1.90;;;;;;;;;;5014354;28;20200;-53
2023/09/18 11:59:46;;;;;;;3.40;1.90;;;;;;;;;;5012113;28;20692;-52
2023/09/18 12:02:20;;;;;;;3.30;1.90;;;;;;;;;;5012414;28;20576;-52
2023/09/18 12:04:47;;;;;;;4.03;2.03;;;;;;;;;;5013920;28;20621;-52
2023/09/18 12:07:13;;;;;;;4.90;2.20;;;;;;;;;;5014111;28;20203;-52
2023/09/18 12:09:40;;;;;;;5.43;1.90;;;;;;;;;;5014111;28;20198;-53
2023/09/18 12:12:08;;;;;;;3.77;2.37;;;;;;;;;;5014188;28;20211;-52
2023/09/18 12:14:34;;;;;;;3.27;2.10;;;;;;;;;;5014162;28;20205;-52
2023/09/18 12:17:01;;;;;;;4.07;1.93;;;;;;;;;;5013796;28;20599;-52
2023/09/18 12:19:27;;;;;;;5.93;1.90;;;;;;;;;;5013727;28;20254;-52
2023/09/18 12:21:54;;;;;;;4.23;1.90;;;;;;;;;;5014021;28;20666;-52
2023/09/18 12:24:22;;;;;;;4.13;1.90;;;;;;;;;;5013982;28;20205;-52
2023/09/18 12:26:49;;;;;;;4.53;1.60;;;;;;;;;;5013783;28;20217;-52
2023/09/18 12:29:15;;;;;;;3.73;1.80;;;;;;;;;;5013668;28;20206;-52
2023/09/18 12:31:42;;;;;;;2.07;1.70;;;;;;;;;;5013469;28;20198;-52
2023/09/18 12:34:14;;;;;;;5.57;2.20;;;;;;;;;;5013544;28;20248;-53
2023/09/18 12:36:42;;;;;;;3.13;1.80;;;;;;;;;;5013376;28;20304;-52
2023/09/18 12:39:09;;;;;;;2.10;1.70;;;;;;;;;;5013302;28;20248;-52
2023/09/18 12:41:36;;;;;;;4.70;1.93;;;;;;;;;;5013455;28;20690;-52
2023/09/18 12:44:06;;;;;;;2.90;1.90;;;;;;;;;;5013606;28;20212;-52
2023/09/18 12:46:32;;;;;;;4.63;1.83;;;;;;;;;;5013447;28;20194;-52
2023/09/18 12:48:59;;;;;;;3.87;1.90;;;;;;;;;;5013247;28;20254;-52
2023/09/18 12:51:31;;;;;;;3.57;2.07;;;;;;;;;;5013154;28;20471;-52
2023/09/18 12:54:00;;;;;;;7.87;2.00;;;;;;;;;;5013280;28;20202;-52
2023/09/18 12:56:26;;;;;;;3.17;2.10;;;;;;;;;;5011701;28;20285;-52
2023/09/18 12:58:52;;;;;;;4.50;2.00;;;;;;;;;;5013097;28;20698;-52
2023/09/18 13:01:21;;;;;;;3.23;2.10;;;;;;;;;;5013118;28;20618;-52
2023/09/18 13:03:48;;;;;;;5.43;1.90;;;;;;;;;;5013214;28;20202;-52
2023/09/18 13:06:17;;;;;;;3.83;2.13;;;;;;;;;;5012951;28;20677;-52
2023/09/18 13:08:43;;;;;;;6.63;2.10;;;;;;;;;;5012836;28;20248;-52
2023/09/18 13:11:12;;;;;;;5.27;1.90;;;;;;;;;;5012846;28;20208;-52
2023/09/18 13:13:38;;;;;;;4.10;2.13;;;;;;;;;;5012914;28;20722;-52
2023/09/18 13:16:05;;;;;;;2.73;2.10;;;;;;;;;;5013023;28;20209;-52
2023/09/18 13:18:33;;;;;;;4.83;1.90;;;;;;;;;;5012735;28;20195;-51
2023/09/18 13:20:59;;;;;;;4.37;2.30;;;;;;;;;;5012695;28;20255;-51
2023/09/18 13:23:29;;;;;;;3.33;1.77;;;;;;;;;;5012723;28;20208;-51
2023/09/18 13:25:59;;;;;;;3.67;2.10;;;;;;;;;;5012646;28;20730;-51
2023/09/18 13:28:25;;;;;;;4.07;2.07;;;;;;;;;;5012517;28;20255;-51
2023/09/18 13:30:51;;;;;;;4.67;2.20;;;;;;;;;;5012548;28;20714;-51
2023/09/18 13:33:18;;;;;;;3.50;1.70;;;;;;;;;;5012613;28;20208;-52
2023/09/18 13:35:46;;;;;;;5.47;1.90;;;;;;;;;;5012311;28;20303;-52
2023/09/18 13:38:12;;;;;;;2.93;1.80;;;;;;;;;;5012345;28;20289;-53
2023/09/18 13:40:39;;;;;;;6.67;2.10;;;;;;;;;;5012535;28;20712;-53
2023/09/18 13:43:05;;;;;;;5.60;1.70;;;;;;;;;;5003762;28;20198;-52
2023/09/18 13:45:31;;;;;;;4.87;2.10;;;;;;;;;;4992897;28;20564;-53
2023/09/18 13:47:57;;;;;;;7.73;1.93;;;;;;;;;;4992810;28;20225;-52
2023/09/18 13:50:23;;;;;;;3.17;1.93;;;;;;;;;;4992895;28;20332;-53
2023/09/18 13:52:51;;;;;;;3.53;1.67;;;;;;;;;;4992829;28;20229;-52
2023/09/18 13:55:17;;;;;;;3.07;2.00;;;;;;;;;;4990932;28;20210;-53
2023/09/18 13:57:43;;;;;;;4.67;2.27;;;;;;;;;;4992323;28;20198;-53
2023/09/18 14:00:14;;;;;;;4.40;1.70;;;;;;;;;;4992255;28;20256;-53
2023/09/18 14:02:40;;;;;;;3.20;1.80;;;;;;;;;;4992133;28;20313;-53
2023/09/18 14:05:06;;;;;;;4.03;1.90;;;;;;;;;;4992121;28;20694;-53
2023/09/18 14:07:32;;;;;;;3.00;1.90;;;;;;;;;;4991685;28;20199;-53
2023/09/18 14:10:03;;;;;;;4.23;1.87;;;;;;;;;;4992032;28;20199;-52
2023/09/18 14:12:30;;;;;;;5.43;1.80;;;;;;;;;;4991982;28;20272;-52
2023/09/18 14:14:56;;;;;;;2.53;1.60;;;;;;;;;;4991866;28;20237;-52
2023/09/18 14:17:22;;;;;;;4.07;2.10;;;;;;;;;;4991957;28;20199;-52
2023/09/18 14:19:48;;;;;;;4.10;1.80;;;;;;;;;;4991811;28;20223;-52
2023/09/18 14:22:14;;;;;;;2.97;1.50;;;;;;;;;;4991710;28;20234;-52
2023/09/18 14:24:40;;;;;;;2.20;1.67;;;;;;;;;;4991696;28;20223;-52
2023/09/18 14:27:08;;;;;;;2.90;1.90;;;;;;;;;;4991764;28;20205;-52
2023/09/18 14:29:34;;;;;;;2.87;1.93;;;;;;;;;;4991868;28;20211;-52
2023/09/18 14:32:00;;;;;;;4.03;1.97;;;;;;;;;;4991807;28;20194;-52
2023/09/18 14:34:26;;;;;;;2.53;1.80;;;;;;;;;;4991419;28;20198;-52
2023/09/18 14:36:52;;;;;;;3.17;2.00;;;;;;;;;;4991420;28;20214;-52
2023/09/18 14:39:19;;;;;;;2.97;1.77;;;;;;;;;;4991441;28;20741;-52
2023/09/18 14:41:45;;;;;;;3.00;1.70;;;;;;;;;;4991475;28;20207;-52